Time;durP1;ratioP1;P1;durP2;ratioP2;P2;SDS_P1;SDS_P2;PMS_P1;PMS_P2;Temp;Humidity;BMP_temperature;BMP_pressure;BME280_temperature;BME280_humidity;BME280_pressure;Samples;Min_cycle;Max_cycle;Signal;HPM_P1;HPM_P2
2023/07/15 00:00:21;;;;;;;13.10;7.30;;;25.10;93.20;;;25.67;62.72;95152.56;4964163;28;21006;-67
2023/07/15 00:02:50;;;;;;;10.83;7.00;;;25.00;93.30;;;25.67;62.95;95160.66;4964365;28;20509;-59
2023/07/15 00:05:21;;;;;;;11.10;8.10;;;25.10;93.50;;;25.67;62.60;95158.81;4964308;28;20565;-68
2023/07/15 00:07:49;;;;;;;7.50;6.77;;;25.00;93.50;;;25.64;62.94;95158.41;4964541;28;20922;-67
2023/07/15 00:10:18;;;;;;;11.70;6.90;;;25.00;93.50;;;25.62;62.96;95160.53;4961989;28;20501;-59
2023/07/15 00:12:46;;;;;;;7.43;6.60;;;25.00;93.50;;;25.59;63.21;95156.41;4963094;28;20471;-58
2023/07/15 00:15:14;;;;;;;9.37;5.97;;;24.90;93.40;;;25.57;63.09;95153.13;4964013;28;20486;-67
2023/07/15 00:17:41;;;;;;;9.30;7.10;;;24.90;93.70;;;25.56;63.42;95156.84;4960951;28;20451;-59
2023/07/15 00:20:14;;;;;;;7.17;6.43;;;24.90;93.80;;;25.55;63.28;95160.63;4962735;28;20467;-58
2023/07/15 00:22:43;;;;;;;7.50;6.80;;;24.90;94.00;;;25.52;63.14;95159.19;4964975;28;20926;-68
2023/07/15 00:25:15;;;;;;;11.03;7.40;;;24.90;93.90;;;25.51;63.52;95157.53;4964020;28;20558;-59
2023/07/15 00:27:42;;;;;;;14.80;7.40;;;24.90;94.10;;;25.49;63.47;95158.84;4962306;28;20452;-67
2023/07/15 00:30:13;;;;;;;19.83;7.73;;;24.80;94.20;;;25.46;63.30;95161.97;4963946;28;21060;-58
2023/07/15 00:32:41;;;;;;;11.17;7.03;;;24.80;94.20;;;25.44;63.77;95161.38;4964297;28;20442;-67
2023/07/15 00:35:19;;;;;;;7.83;7.13;;;24.80;94.30;;;25.41;63.98;95157.28;4963529;28;20494;-69
2023/07/15 00:37:47;;;;;;;8.23;7.43;;;24.80;94.40;;;25.37;63.67;95148.81;4961388;28;20504;-68
2023/07/15 00:40:14;;;;;;;15.20;7.00;;;24.80;94.40;;;25.35;63.86;95167.06;4963840;28;20490;-67
2023/07/15 00:43:21;;;;;;;9.87;6.83;;;24.70;94.50;;;25.33;64.43;95165.63;4964142;28;20502;-67
2023/07/15 00:46:44;;;;;;;7.90;7.10;;;24.70;94.60;;;25.28;64.49;95166.28;4962273;28;20863;-66
2023/07/15 00:49:14;;;;;;;10.00;6.80;;;24.60;94.70;;;25.23;64.17;95172.34;4963884;28;20940;-59
2023/07/15 00:51:43;;;;;;;11.77;6.87;;;24.60;94.70;;;25.20;63.72;95163.88;4964821;28;20534;-59
2023/07/15 00:54:10;;;;;;;9.93;8.00;;;24.60;94.90;;;25.17;63.94;95167.84;4966163;28;20459;-67
2023/07/15 00:56:39;;;;;;;8.13;6.90;;;24.50;95.00;;;25.14;63.75;95175.56;4967720;28;20516;-59
2023/07/15 00:59:06;;;;;;;8.43;7.10;;;24.50;94.90;;;25.10;64.38;95168.97;4967158;28;20982;-59
2023/07/15 01:01:35;;;;;;;13.67;6.80;;;24.50;95.00;;;25.05;64.47;95175.84;4966780;28;20462;-66
2023/07/15 01:04:02;;;;;;;9.80;6.97;;;24.40;95.00;;;25.02;64.31;95176.31;4963405;28;21032;-68
2023/07/15 01:06:33;;;;;;;8.40;6.83;;;24.40;95.20;;;24.99;63.97;95182.13;4966696;28;20447;-59
2023/07/15 01:09:00;;;;;;;10.20;7.70;;;24.40;95.70;;;24.94;64.07;95181.13;4967013;28;20500;-59
2023/07/15 01:11:29;;;;;;;12.30;7.40;;;24.30;95.40;;;24.92;63.94;95178.66;4966129;28;20485;-67
2023/07/15 01:13:57;;;;;;;10.90;7.53;;;24.30;95.50;;;24.88;64.98;95177.47;4966496;28;20821;-58
2023/07/15 01:16:24;;;;;;;8.33;7.17;;;24.30;95.60;;;24.85;64.29;95184.13;4963004;28;20924;-58
2023/07/15 01:18:53;;;;;;;17.80;7.50;;;24.20;95.70;;;24.81;64.75;95193.66;4966444;28;20515;-59
2023/07/15 01:21:21;;;;;;;8.40;6.80;;;24.20;95.90;;;24.78;65.37;95185.22;4967121;28;20471;-59
2023/07/15 01:23:49;;;;;;;15.83;7.73;;;24.20;95.90;;;24.76;64.60;95180.06;4966960;28;21034;-68
2023/07/15 01:26:17;;;;;;;7.60;6.60;;;24.10;95.80;;;24.75;65.38;95188.34;4968480;28;20851;-68
2023/07/15 01:28:44;;;;;;;11.97;7.93;;;24.10;96.10;;;24.75;65.44;95182.97;4967044;28;20459;-67
2023/07/15 01:31:11;;;;;;;9.37;6.63;;;24.10;96.30;;;24.74;64.56;95184.84;4967678;28;20483;-58
2023/07/15 01:33:38;;;;;;;16.83;7.27;;;24.10;96.20;;;24.73;64.97;95185.88;4966658;28;20447;-58
2023/07/15 01:36:06;;;;;;;9.13;7.40;;;24.10;96.50;;;24.71;65.05;95182.59;4966899;28;20505;-60
2023/07/15 01:38:33;;;;;;;11.13;6.73;;;24.10;96.60;;;24.68;65.07;95183.84;4962962;28;20516;-70
2023/07/15 01:41:02;;;;;;;14.90;7.07;;;24.10;96.70;;;24.66;65.79;95185.13;4967249;28;21017;-67
2023/07/15 01:43:29;;;;;;;10.07;7.00;;;24.00;96.90;;;24.64;65.57;95187.22;4967583;28;20497;-67
2023/07/15 01:45:57;;;;;;;14.00;8.50;;;24.00;96.90;;;24.62;65.47;95181.25;4967476;28;20482;-67
2023/07/15 01:48:25;;;;;;;9.80;7.10;;;24.00;97.00;;;24.60;65.48;95181.47;4966020;28;20546;-67
2023/07/15 01:50:52;;;;;;;7.20;6.37;;;24.00;97.20;;;24.57;65.40;95176.50;4967254;28;20522;-68
2023/07/15 01:53:19;;;;;;;7.80;7.00;;;24.00;97.30;;;24.55;65.97;95183.94;4967077;28;20501;-60
2023/07/15 01:55:46;;;;;;;11.90;8.37;;;23.90;97.40;;;24.53;65.57;95186.03;4967346;28;20478;-59
2023/07/15 01:58:16;;;;;;;8.90;7.70;;;23.90;97.40;;;24.49;66.45;95177.59;4963965;28;20505;-66
2023/07/15 02:00:43;;;;;;;9.33;7.63;;;23.90;97.60;;;24.45;66.47;95180.94;4967141;28;20479;-60
2023/07/15 02:03:10;;;;;;;18.83;7.80;;;23.90;97.70;;;24.43;66.10;95180.31;4966330;28;20865;-67
2023/07/15 02:05:38;;;;;;;8.67;6.90;;;23.80;97.90;;;24.40;66.63;95181.59;4962945;28;20558;-60
2023/07/15 02:08:06;;;;;;;8.27;7.47;;;23.80;98.10;;;24.37;66.87;95181.19;4965800;28;21054;-59
2023/07/15 02:10:33;;;;;;;7.40;6.63;;;23.80;98.30;;;24.35;67.20;95178.72;4965558;28;20552;-59
2023/07/15 02:13:00;;;;;;;10.80;7.60;;;23.80;98.40;;;24.33;66.37;95180.81;4965597;28;20451;-59
2023/07/15 02:15:29;;;;;;;11.23;8.00;;;23.70;98.40;;;24.30;67.06;95184.75;4966443;28;20601;-68
2023/07/15 02:17:56;;;;;;;7.97;6.63;;;23.70;98.60;;;24.28;66.65;95188.69;4964783;28;20451;-60
2023/07/15 02:20:23;;;;;;;11.63;9.07;;;23.70;98.90;;;24.25;66.61;95187.25;4966280;28;20474;-59
2023/07/15 02:22:50;;;;;;;14.03;7.43;;;23.70;99.00;;;24.19;67.65;95188.13;4965775;28;20946;-67
2023/07/15 02:25:19;;;;;;;11.23;8.63;;;23.60;99.20;;;24.20;67.69;95197.00;4969062;28;20466;-67
2023/07/15 02:27:47;;;;;;;14.50;7.93;;;23.60;99.40;;;24.16;67.52;95192.06;4966714;28;20566;-68
2023/07/15 02:30:14;;;;;;;8.57;7.30;;;23.60;99.60;;;24.16;67.50;95194.75;4966029;28;20487;-67
2023/07/15 02:32:43;;;;;;;13.80;8.07;;;23.60;99.70;;;24.13;67.77;95192.50;4966127;28;20467;-67
2023/07/15 02:35:12;;;;;;;17.03;8.17;;;23.60;99.90;;;24.11;67.74;95191.91;4966042;28;20845;-60
2023/07/15 02:37:39;;;;;;;10.50;7.70;;;23.50;99.90;;;24.11;67.38;95196.47;4965430;28;20514;-67
2023/07/15 02:40:09;;;;;;;9.33;8.27;;;23.50;99.90;;;24.10;67.70;95192.13;4961388;28;20467;-60
2023/07/15 02:42:36;;;;;;;10.13;7.70;;;23.50;99.90;;;24.08;67.87;95194.22;4965416;28;21114;-58
2023/07/15 02:45:05;;;;;;;12.37;7.80;;;23.50;99.90;;;24.07;67.53;95203.31;4965859;28;20486;-59
2023/07/15 02:47:32;;;;;;;12.53;8.40;;;23.50;99.90;;;24.05;67.51;95189.28;4965835;28;20447;-59
2023/07/15 02:50:03;;;;;;;9.87;8.17;;;23.50;99.90;;;24.03;67.74;95194.84;4965490;28;20558;-60
2023/07/15 02:52:32;;;;;;;19.70;8.33;;;23.40;99.90;;;24.01;67.85;95199.59;4965401;28;20474;-59
2023/07/15 02:55:01;;;;;;;13.67;8.90;;;23.40;99.90;;;24.00;68.17;95197.97;4965620;28;20491;-69
2023/07/15 02:57:28;;;;;;;20.47;8.37;;;23.40;99.90;;;23.98;68.24;95205.41;4962426;28;20451;-59
2023/07/15 02:59:55;;;;;;;14.57;8.77;;;23.40;99.90;;;23.95;67.55;95201.31;4962046;28;20585;-60
2023/07/15 03:02:23;;;;;;;24.80;9.20;;;23.40;99.90;;;23.94;68.28;95198.84;4968540;28;21025;-67
2023/07/15 03:04:50;;;;;;;15.73;8.83;;;23.40;99.90;;;23.91;68.21;95205.47;4965648;28;20484;-67
2023/07/15 03:07:20;;;;;;;18.37;8.90;;;23.30;99.90;;;23.90;68.40;95208.34;4965167;28;20451;-60
2023/07/15 03:09:48;;;;;;;11.03;7.60;;;23.30;99.90;;;23.88;68.54;95208.56;4964811;28;20479;-59
2023/07/15 03:12:15;;;;;;;11.43;8.20;;;23.30;99.90;;;23.86;68.30;95202.59;4965169;28;20459;-60
2023/07/15 03:14:43;;;;;;;12.30;8.10;;;23.30;99.90;;;23.83;68.50;95200.31;4965297;28;20553;-68
2023/07/15 03:17:10;;;;;;;10.97;9.03;;;23.30;99.90;;;23.83;68.61;95202.16;4962796;28;20458;-60
2023/07/15 03:19:37;;;;;;;14.33;8.90;;;23.30;99.90;;;23.80;67.87;95198.88;4964171;28;20464;-59
2023/07/15 03:22:05;;;;;;;12.57;9.13;;;23.20;99.90;;;23.79;68.12;95201.75;4965318;28;20478;-68
2023/07/15 03:24:35;;;;;;;17.63;8.37;;;23.20;99.90;;;23.78;68.48;95208.16;4964874;28;21083;-60
2023/07/15 03:27:03;;;;;;;12.97;8.10;;;23.20;99.90;;;23.74;68.78;95205.09;4965069;28;20455;-59
2023/07/15 03:29:30;;;;;;;12.27;8.20;;;23.20;99.90;;;23.69;68.14;95201.41;4964796;28;20484;-59
2023/07/15 03:31:57;;;;;;;18.87;8.10;;;23.10;99.90;;;23.63;68.19;95206.59;4964938;28;20463;-68
2023/07/15 03:34:24;;;;;;;13.57;8.47;;;23.10;99.90;;;23.62;68.68;95202.28;4962000;28;20495;-60
2023/07/15 03:36:52;;;;;;;10.57;8.23;;;23.00;99.90;;;23.62;68.70;95198.75;4967636;28;20459;-61
2023/07/15 03:39:21;;;;;;;16.90;8.27;;;23.00;99.90;;;23.62;68.39;95204.13;4964047;28;20967;-68
2023/07/15 03:41:49;;;;;;;13.40;8.93;;;23.10;99.90;;;23.63;68.52;95203.09;4964755;28;20459;-59
2023/07/15 03:44:17;;;;;;;12.20;8.37;;;23.10;99.90;;;23.62;69.02;95199.59;4966619;28;20568;-67
2023/07/15 03:46:44;;;;;;;8.50;7.43;;;23.10;99.90;;;23.66;68.79;95204.53;4971610;28;20506;-65
2023/07/15 03:49:11;;;;;;;18.80;8.63;;;23.10;99.90;;;23.68;69.18;95202.44;4969259;28;20481;-69
2023/07/15 03:51:38;;;;;;;11.03;8.20;;;23.10;99.90;;;23.68;68.68;95200.56;4965391;28;20455;-60
2023/07/15 03:54:06;;;;;;;10.00;8.70;;;23.10;99.90;;;23.69;68.88;95202.22;4964297;28;20466;-61
2023/07/15 03:56:34;;;;;;;8.57;7.53;;;23.10;99.90;;;23.70;68.64;95203.06;4961022;28;20470;-60
2023/07/15 03:59:02;;;;;;;11.47;9.00;;;23.10;99.90;;;23.71;68.67;95202.03;4964619;28;20451;-59
2023/07/15 04:01:30;;;;;;;20.57;8.23;;;23.10;99.90;;;23.71;68.53;95208.22;4964723;28;20886;-62
2023/07/15 04:03:57;;;;;;;12.10;8.93;;;23.10;99.90;;;23.75;68.46;95208.59;4959487;28;20506;-68
2023/07/15 04:06:24;;;;;;;13.97;8.70;;;23.20;99.90;;;23.76;67.98;95210.25;4962057;28;20475;-58
2023/07/15 04:08:51;;;;;;;9.47;8.50;;;23.20;99.90;;;23.78;68.02;95216.22;4964475;28;20852;-68
2023/07/15 04:11:19;;;;;;;10.83;7.93;;;23.20;99.90;;;23.78;68.04;95222.44;4964401;28;21011;-68
2023/07/15 04:13:46;;;;;;;12.67;7.93;;;23.20;99.90;;;23.80;68.31;95230.28;4964599;28;20470;-68
2023/07/15 04:16:15;;;;;;;11.60;8.60;;;23.20;99.90;;;23.84;68.78;95233.34;4960895;28;20480;-67
2023/07/15 04:18:43;;;;;;;12.47;7.90;;;23.30;99.90;;;23.83;67.81;95229.84;4963964;28;20451;-59
2023/07/15 04:21:10;;;;;;;11.20;9.97;;;23.20;99.90;;;23.86;68.20;95239.38;4964578;28;20988;-59
2023/07/15 04:23:38;;;;;;;15.50;8.93;;;23.30;99.90;;;23.86;68.62;95240.22;4964470;28;20495;-59
2023/07/15 04:26:07;;;;;;;13.10;9.27;;;23.30;99.90;;;23.88;68.52;95240.81;4962752;28;20902;-69
2023/07/15 04:28:34;;;;;;;15.83;9.77;;;23.30;99.90;;;23.90;68.61;95246.78;4963703;28;20867;-60
2023/07/15 04:31:02;;;;;;;12.47;9.30;;;23.30;99.90;;;23.94;68.30;95250.69;4964105;28;20540;-66
2023/07/15 04:33:31;;;;;;;14.40;9.40;;;23.30;99.90;;;23.96;68.42;95245.94;4964223;28;20463;-67
2023/07/15 04:35:58;;;;;;;16.30;8.70;;;23.40;99.90;;;23.97;68.04;95252.97;4964640;28;20467;-68
2023/07/15 04:38:25;;;;;;;10.43;9.13;;;23.40;99.90;;;24.01;68.14;95252.53;4964101;28;20455;-68
2023/07/15 04:40:52;;;;;;;13.73;9.30;;;23.40;99.90;;;24.05;67.97;95243.00;4969059;28;20463;-66
2023/07/15 04:43:22;;;;;;;9.53;8.63;;;23.50;99.90;;;24.07;67.48;95251.69;4973619;28;21014;-59
2023/07/15 04:45:49;;;;;;;14.37;10.20;;;23.50;99.90;;;24.08;66.88;95245.28;4964140;28;21079;-67
2023/07/15 04:48:17;;;;;;;18.97;10.80;;;23.50;99.90;;;24.09;67.84;95249.59;4963518;28;21025;-67
2023/07/15 04:50:46;;;;;;;11.73;10.53;;;23.50;99.90;;;24.14;67.35;95255.16;4963733;28;21030;-59
2023/07/15 04:53:13;;;;;;;11.57;9.83;;;23.50;99.90;;;24.19;67.11;95255.34;4963852;28;20462;-59
2023/07/15 04:55:41;;;;;;;17.63;10.77;;;23.60;99.90;;;24.24;67.68;95258.19;4963576;28;21263;-59
2023/07/15 04:58:08;;;;;;;14.97;9.57;;;23.60;99.90;;;24.31;67.92;95247.41;4964029;28;20512;-69
2023/07/15 05:00:36;;;;;;;13.47;10.60;;;23.70;99.90;;;24.38;67.11;95252.75;4963222;28;20475;-68
2023/07/15 05:03:05;;;;;;;13.47;9.87;;;23.80;99.90;;;24.46;66.89;95247.09;4960584;28;20494;-60
2023/07/15 05:05:32;;;;;;;12.33;10.93;;;23.80;99.90;;;24.54;66.89;95252.22;4963546;28;20479;-62
2023/07/15 05:08:09;;;;;;;15.37;11.17;;;23.90;99.90;;;24.62;66.73;95246.59;4964018;28;20459;-60
2023/07/15 05:10:37;;;;;;;17.73;10.50;;;24.00;99.90;;;24.69;66.47;95249.22;4963952;28;20478;-59
2023/07/15 05:13:04;;;;;;;16.60;10.30;;;24.10;99.90;;;24.76;66.92;95255.41;4964061;28;20459;-67
2023/07/15 05:15:33;;;;;;;18.73;10.33;;;24.10;99.90;;;24.83;66.72;95252.66;4963205;28;21002;-60
2023/07/15 05:18:00;;;;;;;18.13;10.03;;;24.20;99.90;;;24.91;66.60;95248.84;4963085;28;20459;-60
2023/07/15 05:20:28;;;;;;;10.60;9.33;;;24.30;99.90;;;25.00;66.54;95245.69;4963869;28;20471;-60
2023/07/15 05:22:55;;;;;;;30.00;19.77;;;24.40;99.90;;;25.10;66.05;95249.72;4963694;28;20467;-58
2023/07/15 05:25:24;;;;;;;22.97;16.47;;;24.50;99.90;;;25.22;65.99;95242.56;4963384;28;20483;-69
2023/07/15 05:27:51;;;;;;;31.03;16.10;;;24.60;99.90;;;25.35;65.51;95250.53;4963440;28;20461;-58
2023/07/15 05:30:19;;;;;;;33.93;16.57;;;24.70;99.90;;;25.50;65.61;95249.34;4963026;28;20850;-59
2023/07/15 05:32:47;;;;;;;19.80;14.30;;;24.80;99.90;;;25.66;64.67;95251.44;4962235;28;20492;-68
2023/07/15 05:35:14;;;;;;;22.73;13.63;;;24.90;99.90;;;25.85;64.56;95246.03;4959285;28;20577;-60
2023/07/15 05:37:41;;;;;;;23.43;14.23;;;25.10;99.90;;;26.01;64.36;95256.25;4963694;28;20455;-68
2023/07/15 05:40:10;;;;;;;18.77;11.67;;;25.30;99.90;;;26.21;63.81;95257.84;4963294;28;20479;-59
2023/07/15 05:42:40;;;;;;;15.70;11.90;;;25.50;99.90;;;26.40;63.19;95259.44;4961383;28;20447;-61
2023/07/15 05:45:09;;;;;;;15.20;11.27;;;25.60;99.90;;;26.58;62.60;95260.44;4966348;28;20498;-61
2023/07/15 05:47:36;;;;;;;24.37;12.00;;;25.80;99.90;;;26.76;62.25;95268.47;4964036;28;20542;-59
2023/07/15 05:50:04;;;;;;;22.90;13.07;;;26.00;99.90;;;26.95;61.66;95271.91;4966073;28;20902;-68
2023/07/15 05:52:31;;;;;;;25.30;11.83;;;26.20;99.90;;;27.19;61.25;95271.94;4966658;28;20455;-66
2023/07/15 05:54:59;;;;;;;26.03;13.80;;;26.40;99.50;;;27.38;60.74;95275.38;4965828;28;20486;-68
2023/07/15 05:57:26;;;;;;;16.37;10.60;;;26.60;99.30;;;27.57;60.52;95276.06;4966293;28;20840;-67
2023/07/15 05:59:55;;;;;;;17.37;11.90;;;26.80;98.90;;;27.76;60.21;95279.44;4965786;28;20557;-67
2023/07/15 06:02:22;;;;;;;18.23;10.67;;;27.00;98.40;;;27.94;59.89;95281.16;4965621;28;20463;-67
2023/07/15 06:04:49;;;;;;;17.23;10.60;;;27.20;98.10;;;28.13;58.85;95273.72;4963121;28;20505;-67
2023/07/15 06:07:17;;;;;;;21.57;12.70;;;27.30;97.60;;;28.29;58.40;95271.31;4960297;28;20459;-61
2023/07/15 06:09:44;;;;;;;21.90;13.13;;;27.50;97.20;;;28.46;57.79;95269.50;4967351;28;20475;-59
2023/07/15 06:12:13;;;;;;;19.23;11.00;;;27.70;96.80;;;28.63;58.16;95268.72;4966832;28;20463;-68
2023/07/15 06:14:40;;;;;;;24.57;11.67;;;27.80;96.50;;;28.77;57.07;95261.97;4966025;28;20475;-67
2023/07/15 06:17:09;;;;;;;12.93;11.40;;;27.90;96.00;;;28.90;56.82;95252.69;4963566;28;20454;-59
2023/07/15 06:19:37;;;;;;;20.47;12.00;;;28.10;95.70;;;29.01;56.27;95256.38;4965744;28;20470;-69
2023/07/15 06:22:05;;;;;;;24.90;11.23;;;28.20;95.20;;;29.07;56.60;95258.09;4966831;28;20516;-67
2023/07/15 06:24:33;;;;;;;14.97;11.17;;;28.30;94.90;;;29.15;55.25;95261.19;4965888;28;20236;-59
2023/07/15 06:27:00;;;;;;;19.53;11.23;;;28.30;94.50;;;29.24;55.94;95252.72;4965206;28;20273;-59
2023/07/15 06:29:28;;;;;;;18.27;11.43;;;28.50;94.30;;;29.33;55.76;95256.63;4965912;28;20243;-61
2023/07/15 06:31:55;;;;;;;17.10;11.10;;;28.50;94.00;;;29.45;55.48;95259.22;4965198;28;20212;-60
2023/07/15 06:34:24;;;;;;;24.90;12.00;;;28.70;93.80;;;29.57;54.85;95251.00;4960587;28;20200;-66
2023/07/15 06:36:51;;;;;;;18.77;12.40;;;28.80;93.70;;;29.73;55.53;95243.88;4964237;28;20665;-66
2023/07/15 06:39:18;;;;;;;15.90;11.20;;;28.90;93.60;;;29.90;55.16;95252.00;4961650;28;20260;-60
2023/07/15 06:41:45;;;;;;;25.30;11.73;;;29.00;93.40;;;30.02;53.72;95256.22;4961577;28;20750;-61
2023/07/15 06:44:12;;;;;;;15.07;10.70;;;29.20;92.90;;;30.14;54.41;95249.84;4958569;28;20240;-66
2023/07/15 06:46:40;;;;;;;17.70;11.00;;;29.30;92.70;;;30.28;53.88;95255.69;4961570;28;20257;-59
2023/07/15 06:49:07;;;;;;;30.00;12.53;;;29.40;92.50;;;30.44;53.59;95254.78;4957985;28;20234;-59
2023/07/15 06:51:36;;;;;;;25.67;11.10;;;29.60;92.30;;;30.54;52.54;95254.91;4956869;28;20701;-67
2023/07/15 06:54:03;;;;;;;17.53;11.30;;;29.70;91.70;;;30.62;52.09;95250.09;4958407;28;20215;-61
2023/07/15 06:56:30;;;;;;;15.70;10.50;;;29.80;91.00;;;30.71;52.14;95254.00;4961182;28;20220;-68
2023/07/15 06:58:58;;;;;;;20.98;11.25;;;29.90;91.10;;;30.84;52.59;95252.75;4958110;28;20211;-67
2023/07/15 07:01:25;;;;;;;27.63;12.50;;;30.00;90.80;;;31.00;52.58;95251.00;4958548;28;20821;-59
2023/07/15 07:03:52;;;;;;;31.83;11.18;;;30.20;90.70;;;31.17;51.65;95250.84;4959232;28;20716;-67
2023/07/15 07:06:20;;;;;;;16.97;12.53;;;30.30;90.30;;;31.22;51.01;95253.63;4964153;28;20668;-68
2023/07/15 07:08:48;;;;;;;24.15;12.25;;;30.40;89.50;;;31.27;51.61;95261.81;4958870;28;20211;-61
2023/07/15 07:11:16;;;;;;;19.65;11.25;;;30.50;89.20;;;31.38;50.95;95254.53;4959322;28;20232;-67
2023/07/15 07:13:43;;;;;;;30.42;12.40;;;30.50;88.80;;;31.56;51.15;95258.78;4961494;28;20215;-60
2023/07/15 07:16:10;;;;;;;21.77;12.70;;;30.70;88.30;;;31.70;50.56;95254.47;4957845;28;20329;-67
2023/07/15 07:18:37;;;;;;;18.77;12.38;;;30.80;87.50;;;31.80;50.15;95256.44;4965498;28;20340;-67
2023/07/15 07:21:05;;;;;;;20.67;12.00;;;30.90;86.90;;;31.93;50.00;95255.13;4965206;28;20223;-67
2023/07/15 07:23:32;;;;;;;14.15;10.88;;;31.10;86.60;;;32.12;49.61;95261.78;4964693;28;20203;-60
2023/07/15 07:26:01;;;;;;;22.55;13.35;;;31.20;86.10;;;32.27;48.95;95258.28;4964876;28;20224;-67
2023/07/15 07:28:40;;;;;;;15.50;11.52;;;31.40;84.90;;;32.34;48.40;95252.59;4965123;28;20539;-69
2023/07/15 07:31:07;;;;;;;16.25;11.82;;;31.50;83.80;;;32.41;49.03;95250.44;4963475;28;20318;-60
2023/07/15 07:33:34;;;;;;;13.07;10.80;;;31.60;83.90;;;32.56;48.50;95248.81;4963400;28;20371;-68
2023/07/15 07:36:02;;;;;;;24.60;13.80;;;31.70;83.40;;;32.66;48.05;95244.25;4964555;28;20228;-68
2023/07/15 07:38:29;;;;;;;17.65;11.98;;;31.80;82.70;;;32.62;47.99;95247.75;4964681;28;20203;-60
2023/07/15 07:41:06;;;;;;;15.82;12.25;;;31.80;81.60;;;32.59;47.80;95242.84;4964420;28;20231;-60
2023/07/15 07:43:33;;;;;;;25.25;13.60;;;31.80;81.80;;;32.65;47.77;95237.16;4963150;28;20287;-68
2023/07/15 07:46:01;;;;;;;22.58;12.40;;;31.80;81.80;;;32.80;47.96;95246.44;4963979;28;20858;-60
2023/07/15 07:48:28;;;;;;;18.52;10.90;;;31.90;82.30;;;32.87;47.24;95245.09;4964823;28;20215;-68
2023/07/15 07:50:56;;;;;;;17.67;11.68;;;32.00;80.80;;;33.01;47.16;95237.16;4966842;28;20230;-68
2023/07/15 07:53:23;;;;;;;15.43;10.45;;;32.10;80.30;;;33.16;47.08;95236.34;4965015;28;20269;-60
2023/07/15 07:55:51;;;;;;;17.60;10.95;;;32.30;80.10;;;33.40;46.94;95238.50;4965001;28;20334;-60
2023/07/15 07:58:19;;;;;;;16.58;9.80;;;32.50;80.20;;;33.67;46.35;95235.47;4965338;28;20212;-67
2023/07/15 08:00:46;;;;;;;22.83;9.73;;;32.70;78.70;;;33.88;45.89;95233.50;4964420;28;20246;-69
2023/07/15 08:03:14;;;;;;;13.25;9.73;;;32.90;77.40;;;34.07;45.12;95233.69;4961915;28;20217;-60
2023/07/15 08:05:43;;;;;;;16.88;10.70;;;33.10;75.90;;;34.19;44.10;95235.28;4964147;28;20246;-66
2023/07/15 08:08:12;;;;;;;12.52;9.27;;;33.30;75.20;;;34.30;44.77;95237.72;4963925;28;20287;-70
2023/07/15 08:10:40;;;;;;;22.63;9.90;;;33.50;75.40;;;34.50;44.81;95241.41;4957710;28;20227;-67
2023/07/15 08:13:08;;;;;;;62.10;11.93;;;33.60;75.00;;;34.64;44.15;95238.84;4962551;28;20686;-68
2023/07/15 08:15:36;;;;;;;16.10;9.93;;;33.70;73.60;;;34.73;43.24;95242.63;4963949;28;20309;-59
2023/07/15 08:18:04;;;;;;;12.90;10.57;;;33.80;72.80;;;34.80;42.83;95247.81;4963570;28;20212;-61
2023/07/15 08:20:32;;;;;;;21.65;10.68;;;33.90;72.30;;;34.85;43.02;95236.84;4965205;28;20236;-62
2023/07/15 08:23:00;;;;;;;15.10;10.65;;;34.00;71.50;;;34.93;41.96;95244.41;4965740;28;20692;-63
2023/07/15 08:25:27;;;;;;;12.70;9.95;;;34.10;70.60;;;34.96;42.36;95237.56;4961442;28;20245;-70
2023/07/15 08:27:55;;;;;;;19.50;11.57;;;34.20;70.20;;;35.00;42.77;95238.66;4964334;28;20290;-59
2023/07/15 08:30:22;;;;;;;14.05;10.18;;;34.20;69.80;;;35.02;42.39;95244.63;4963569;28;20234;-66
2023/07/15 08:32:51;;;;;;;12.40;9.55;;;34.30;69.20;;;34.97;41.81;95237.28;4962957;28;20455;-60
2023/07/15 08:35:18;;;;;;;14.40;10.48;;;34.20;69.10;;;34.96;42.10;95238.38;4964043;28;20284;-69
2023/07/15 08:37:46;;;;;;;35.85;11.77;;;34.20;68.90;;;34.94;42.52;95243.31;4963753;28;20227;-61
2023/07/15 08:40:13;;;;;;;16.67;11.43;;;34.20;69.10;;;34.96;41.85;95235.66;4964268;28;20301;-70
2023/07/15 08:42:41;;;;;;;17.65;13.65;;;34.20;68.70;;;34.94;42.28;95235.13;4964080;28;20239;-70
2023/07/15 08:45:09;;;;;;;21.88;10.20;;;34.10;68.60;;;34.97;42.27;95234.56;4964315;28;20243;-59
2023/07/15 08:47:40;;;;;;;14.65;9.73;;;34.10;68.80;;;35.01;42.77;95232.88;4963182;28;20208;-67
2023/07/15 08:50:11;;;;;;;15.23;11.50;;;34.20;68.50;;;35.05;40.86;95224.91;4963893;28;20227;-68
2023/07/15 08:52:38;;;;;;;20.80;11.55;;;34.20;67.40;;;35.11;41.74;95228.44;4964792;28;20202;-59
2023/07/15 08:55:07;;;;;;;17.55;10.00;;;34.30;68.10;;;35.16;41.92;95231.13;4964101;28;20246;-69
2023/07/15 08:57:34;;;;;;;27.73;10.23;;;34.30;67.70;;;35.31;41.70;95232.94;4963794;28;20209;-61
2023/07/15 09:00:04;;;;;;;13.73;10.32;;;34.40;67.80;;;35.56;41.62;95231.84;4964756;28;20224;-69
2023/07/15 09:02:31;;;;;;;25.35;10.40;;;34.70;67.40;;;35.72;40.91;95232.50;4959228;28;20225;-69
2023/07/15 09:04:59;;;;;;;20.10;9.55;;;34.80;66.50;;;35.80;40.17;95228.34;4964372;28;20336;-61
2023/07/15 09:07:31;;;;;;;11.48;9.35;;;34.90;65.60;;;35.79;40.87;95226.69;4960017;28;20741;-60
2023/07/15 09:09:59;;;;;;;15.30;10.10;;;34.90;65.30;;;35.83;40.72;95233.22;4960706;28;20227;-60
2023/07/15 09:12:27;;;;;;;18.60;9.73;;;35.00;65.00;;;35.91;40.29;95229.84;4963891;28;20212;-61
2023/07/15 09:14:54;;;;;;;18.08;9.85;;;35.00;64.60;;;36.03;40.01;95226.69;4963926;28;20227;-70
2023/07/15 09:17:23;;;;;;;22.77;9.98;;;35.20;64.30;;;36.26;39.71;95227.78;4965654;28;20640;-59
2023/07/15 09:19:51;;;;;;;17.10;9.43;;;35.40;64.20;;;36.40;39.16;95225.94;4967015;28;20228;-60
2023/07/15 09:22:19;;;;;;;14.95;10.10;;;35.50;63.30;;;36.47;38.99;95230.22;4966818;28;20290;-60
2023/07/15 09:24:48;;;;;;;14.60;10.85;;;35.60;62.80;;;36.48;38.71;95231.88;4963412;28;20239;-61
2023/07/15 09:27:15;;;;;;;15.05;10.15;;;35.60;62.20;;;36.45;38.69;95221.50;4966845;28;20216;-59
2023/07/15 09:29:42;;;;;;;25.52;10.10;;;35.60;62.20;;;36.42;39.26;95223.75;4966951;28;20230;-69
2023/07/15 09:32:10;;;;;;;22.58;9.25;;;35.60;61.80;;;36.37;39.27;95218.31;4964772;28;20207;-61
2023/07/15 09:34:40;;;;;;;19.83;9.88;;;35.60;61.80;;;36.34;39.12;95210.69;4966901;28;20231;-61
2023/07/15 09:37:07;;;;;;;20.02;10.00;;;35.60;61.40;;;36.35;38.65;95212.31;4966808;28;20207;-70
2023/07/15 09:39:36;;;;;;;11.70;10.18;;;35.60;61.80;;;36.45;39.34;95210.53;4967435;28;20227;-60
2023/07/15 09:42:07;;;;;;;20.48;10.27;;;35.60;61.80;;;36.48;38.35;95216.25;4966888;28;21017;-59
2023/07/15 09:44:36;;;;;;;20.60;10.63;;;35.70;61.10;;;36.34;39.11;95207.13;4966820;28;20247;-69
2023/07/15 09:47:04;;;;;;;15.93;9.65;;;35.60;61.10;;;36.24;39.04;95205.34;4964331;28;20264;-69
2023/07/15 09:49:31;;;;;;;18.23;9.77;;;35.50;61.60;;;36.28;39.29;95206.38;4965331;28;20288;-60
2023/07/15 09:51:59;;;;;;;13.30;10.23;;;35.50;61.70;;;36.32;38.80;95195.66;4967457;28;20207;-59
2023/07/15 09:54:27;;;;;;;15.02;10.00;;;35.50;61.60;;;36.41;38.98;95185.66;4968010;28;20219;-68
2023/07/15 09:56:57;;;;;;;19.88;10.75;;;35.50;62.00;;;36.64;39.68;95188.59;4966761;28;20291;-69
2023/07/15 09:59:28;;;;;;;21.00;11.23;;;35.70;62.40;;;36.91;39.20;95193.41;4963176;28;20231;-61
2023/07/15 10:02:00;;;;;;;20.75;12.00;;;35.90;62.00;;;37.06;38.65;95193.16;4965314;28;20231;-69
2023/07/15 10:04:32;;;;;;;15.80;12.13;;;36.10;61.60;;;37.13;38.58;95188.06;4964955;28;20220;-60
2023/07/15 10:06:59;;;;;;;16.63;11.50;;;36.20;60.50;;;37.20;38.37;95195.09;4966570;28;20377;-69
2023/07/15 10:09:27;;;;;;;21.67;12.95;;;36.30;60.40;;;37.17;38.26;95187.47;4966167;28;20224;-60
2023/07/15 10:11:55;;;;;;;15.18;11.10;;;36.30;60.20;;;37.19;37.90;95188.00;4966556;28;20246;-70
2023/07/15 10:14:26;;;;;;;17.08;9.85;;;36.30;59.80;;;37.29;38.15;95185.91;4966082;28;20211;-60